createdAt,value
2022-12-15T00:00:58.007Z,14.43
2022-12-15T00:03:45.947Z,14.43
2022-12-15T00:06:34.455Z,14.49
2022-12-15T00:09:27.659Z,14.47
2022-12-15T00:12:18.459Z,14.51
2022-12-15T00:15:06.158Z,14.52
2022-12-15T00:17:54.026Z,14.52
2022-12-15T00:20:42.512Z,14.49
2022-12-15T00:23:32.295Z,14.42
2022-12-15T00:26:19.950Z,14.30
2022-12-15T00:29:07.748Z,14.35
2022-12-15T00:31:55.337Z,14.27
2022-12-15T00:34:42.980Z,14.28
2022-12-15T00:37:30.590Z,14.27
2022-12-15T00:40:00.189Z,14.30
2022-12-15T00:42:33.176Z,14.27
2022-12-15T00:45:03.300Z,14.21
2022-12-15T00:47:34.807Z,14.25
2022-12-15T00:50:22.858Z,14.00
2022-12-15T00:53:11.255Z,13.86
2022-12-15T00:55:58.784Z,13.89
2022-12-15T00:58:46.923Z,13.81
2022-12-15T01:01:35.011Z,13.94
2022-12-15T01:04:23.134Z,13.97
2022-12-15T01:07:10.689Z,14.04
2022-12-15T01:09:58.374Z,14.04
2022-12-15T01:12:46.165Z,14.03
2022-12-15T01:15:33.880Z,14.02
2022-12-15T01:18:21.856Z,14.00
2022-12-15T01:21:02.368Z,14.09
2022-12-15T01:23:33.120Z,13.91
2022-12-15T01:26:03.707Z,13.89
2022-12-15T01:28:33.374Z,13.85
2022-12-15T01:31:03.001Z,13.80
2022-12-15T01:33:32.684Z,13.82
2022-12-15T01:36:03.433Z,13.80
2022-12-15T01:38:33.042Z,13.80
2022-12-15T01:41:09.111Z,13.78
2022-12-15T01:43:41.198Z,13.71
2022-12-15T01:46:18.818Z,13.76
2022-12-15T01:48:59.011Z,13.84
2022-12-15T01:51:37.255Z,13.71
2022-12-15T01:54:10.023Z,13.68
2022-12-15T01:56:43.943Z,13.81
2022-12-15T01:59:17.689Z,13.81
2022-12-15T02:01:50.027Z,13.67
2022-12-15T02:04:24.968Z,13.63
2022-12-15T02:06:54.815Z,13.49
2022-12-15T02:09:28.115Z,13.50
2022-12-15T02:12:03.574Z,13.53
2022-12-15T02:15:02.109Z,13.50
2022-12-15T02:17:47.443Z,13.59
2022-12-15T02:20:19.787Z,13.47
2022-12-15T02:23:25.904Z,13.66
2022-12-15T02:26:32.397Z,13.63
2022-12-15T02:29:29.324Z,13.69
2022-12-15T02:32:10.522Z,13.67
2022-12-15T02:35:01.162Z,13.67
2022-12-15T02:37:39.851Z,13.75
2022-12-15T02:40:11.561Z,13.72
2022-12-15T02:42:47.236Z,13.79
2022-12-15T02:45:23.551Z,13.91
2022-12-15T02:48:17.733Z,14.02
2022-12-15T02:51:22.498Z,14.16
2022-12-15T02:54:07.380Z,14.29
2022-12-15T02:56:56.519Z,14.31
2022-12-15T02:59:47.129Z,14.50
2022-12-15T03:02:17.341Z,14.40
2022-12-15T03:04:47.180Z,14.42
2022-12-15T03:07:16.665Z,14.46
2022-12-15T03:09:45.960Z,14.57
2022-12-15T03:12:17.664Z,14.62
2022-12-15T03:14:47.108Z,14.76
2022-12-15T03:17:16.573Z,14.84
2022-12-15T03:19:46.488Z,14.93
2022-12-15T03:22:19.123Z,14.99
2022-12-15T03:24:49.596Z,14.98
2022-12-15T03:27:19.153Z,15.06
2022-12-15T03:29:48.586Z,15.18
2022-12-15T03:32:18.122Z,15.25
2022-12-15T03:34:47.640Z,15.41
2022-12-15T03:37:17.413Z,15.44
2022-12-15T03:39:47.007Z,15.47
2022-12-15T03:42:36.470Z,15.61
2022-12-15T03:45:06.810Z,15.79
2022-12-15T03:47:36.349Z,15.85
2022-12-15T03:50:06.296Z,15.95
2022-12-15T03:52:36.004Z,16.02
2022-12-15T03:55:06.411Z,16.08
2022-12-15T03:57:36.368Z,16.16
2022-12-15T04:00:08.231Z,16.36
2022-12-15T04:02:44.584Z,16.47
2022-12-15T04:05:24.213Z,16.70
2022-12-15T04:07:54.918Z,16.70
2022-12-15T04:10:31.888Z,16.76
2022-12-15T04:13:09.860Z,16.85
2022-12-15T04:15:41.743Z,16.98
2022-12-15T04:18:13.089Z,16.98
2022-12-15T04:20:42.722Z,17.11
2022-12-15T04:23:12.318Z,17.16
2022-12-15T04:26:00.284Z,17.27
2022-12-15T04:28:48.196Z,17.37
2022-12-15T04:31:45.231Z,17.53
2022-12-15T04:34:39.861Z,17.63
2022-12-15T04:37:31.326Z,17.75
2022-12-15T04:40:20.207Z,17.82
2022-12-15T04:43:08.554Z,17.82
2022-12-15T04:45:56.723Z,17.97
2022-12-15T04:48:44.713Z,18.08
2022-12-15T04:51:32.594Z,18.17
2022-12-15T04:54:20.545Z,18.27
2022-12-15T04:57:08.715Z,18.36
2022-12-15T04:59:56.653Z,18.44
2022-12-15T05:02:45.028Z,18.56
2022-12-15T05:05:32.789Z,18.64
2022-12-15T05:08:20.989Z,18.77
2022-12-15T05:11:08.656Z,18.92
2022-12-15T05:13:56.457Z,19.01
2022-12-15T05:16:44.383Z,19.12
2022-12-15T05:19:32.433Z,19.22
2022-12-15T05:22:20.163Z,19.35
2022-12-15T05:25:08.026Z,19.48
2022-12-15T05:27:55.891Z,19.52
2022-12-15T05:30:43.522Z,19.57
2022-12-15T05:33:12.953Z,19.74
2022-12-15T05:35:42.345Z,19.87
2022-12-15T05:38:11.779Z,19.89
2022-12-15T05:40:41.427Z,20.01
2022-12-15T05:43:11.021Z,20.03
2022-12-15T05:45:40.847Z,20.13
2022-12-15T05:48:11.170Z,20.27
2022-12-15T05:50:40.944Z,20.30
2022-12-15T05:53:10.381Z,20.42
2022-12-15T05:55:40.213Z,20.50
2022-12-15T05:58:09.658Z,20.57
2022-12-15T06:00:39.574Z,20.62
2022-12-15T06:03:09.110Z,20.85
2022-12-15T06:05:38.647Z,20.92
2022-12-15T06:08:08.598Z,21.07
2022-12-15T06:10:38.038Z,21.09
2022-12-15T06:13:07.539Z,21.14
2022-12-15T06:15:37.441Z,21.28
2022-12-15T06:18:07.132Z,21.36
2022-12-15T06:20:36.683Z,21.40
2022-12-15T06:23:06.499Z,21.47
2022-12-15T06:25:36.295Z,21.50
2022-12-15T06:28:09.241Z,21.60
2022-12-15T06:30:40.249Z,21.69
2022-12-15T06:33:10.041Z,21.69
2022-12-15T06:35:39.802Z,21.81
2022-12-15T06:38:09.840Z,21.90
2022-12-15T06:40:40.698Z,21.85
2022-12-15T06:43:10.602Z,21.95
2022-12-15T06:45:40.273Z,22.02
2022-12-15T06:48:09.943Z,22.06
2022-12-15T06:50:39.910Z,22.19
2022-12-15T06:53:09.580Z,22.21
2022-12-15T06:55:39.554Z,22.28
2022-12-15T06:58:09.628Z,22.42
2022-12-15T07:00:39.134Z,22.44
2022-12-15T07:03:20.713Z,22.63
2022-12-15T07:05:50.563Z,22.58
2022-12-15T07:08:22.533Z,22.67
2022-12-15T07:10:55.450Z,22.67
2022-12-15T07:13:25.456Z,22.67
2022-12-15T07:15:54.903Z,22.73
2022-12-15T07:18:24.496Z,22.74
2022-12-15T07:20:55.435Z,22.85
2022-12-15T07:23:45.956Z,22.80
2022-12-15T07:26:15.027Z,22.86
2022-12-15T07:28:46.022Z,22.90
2022-12-15T07:31:16.762Z,22.98
2022-12-15T07:33:48.744Z,23.01
2022-12-15T07:36:19.489Z,22.94
2022-12-15T07:38:50.434Z,23.00
2022-12-15T07:41:22.054Z,23.15
2022-12-15T07:43:51.758Z,23.11
2022-12-15T07:46:21.504Z,23.15
2022-12-15T07:48:51.615Z,23.16
2022-12-15T07:51:22.103Z,23.19
2022-12-15T07:53:52.635Z,23.18
2022-12-15T07:56:22.258Z,23.19
2022-12-15T07:58:53.041Z,23.14
2022-12-15T08:01:23.230Z,23.18
2022-12-15T08:03:52.889Z,23.21
2022-12-15T08:06:22.614Z,23.27
2022-12-15T08:08:53.182Z,23.32
2022-12-15T08:11:27.413Z,23.35
2022-12-15T08:14:06.865Z,23.39
2022-12-15T08:16:40.798Z,23.34
2022-12-15T08:19:14.768Z,23.46
2022-12-15T08:21:49.867Z,23.41
2022-12-15T08:24:20.619Z,23.35
2022-12-15T08:26:51.329Z,23.44
2022-12-15T08:32:10.896Z,23.43
2022-12-15T08:34:40.913Z,23.46
2022-12-15T08:37:10.629Z,23.44
2022-12-15T08:39:40.283Z,23.41
2022-12-15T08:42:10.040Z,23.40
2022-12-15T08:44:40.018Z,23.44
2022-12-15T08:47:09.755Z,23.46
2022-12-15T08:49:39.509Z,23.53
2022-12-15T08:52:09.217Z,23.54
2022-12-15T08:54:39.003Z,23.50
2022-12-15T08:57:08.514Z,23.52
2022-12-15T08:59:38.045Z,23.61
2022-12-15T09:02:08.265Z,23.62
2022-12-15T09:04:37.782Z,23.57
2022-12-15T09:07:07.569Z,23.60
2022-12-15T09:09:37.127Z,23.51
2022-12-15T09:12:07.247Z,23.53
2022-12-15T09:14:36.870Z,23.56
2022-12-15T09:17:07.661Z,23.57
2022-12-15T09:19:38.635Z,23.51
2022-12-15T09:22:09.196Z,23.56
2022-12-15T09:24:38.868Z,23.52
2022-12-15T09:27:08.767Z,23.55
2022-12-15T09:29:38.607Z,23.55
2022-12-15T09:32:13.827Z,23.57
2022-12-15T09:34:44.722Z,23.49
2022-12-15T09:37:19.244Z,23.44
2022-12-15T09:39:50.819Z,23.45
2022-12-15T09:42:29.929Z,23.51
2022-12-15T09:45:16.772Z,23.48
2022-12-15T09:47:58.848Z,23.42
2022-12-15T09:50:35.977Z,23.42
2022-12-15T09:53:23.304Z,23.27
2022-12-15T09:56:05.087Z,23.38
2022-12-15T09:59:05.068Z,23.46
2022-12-15T10:01:49.279Z,23.21
2022-12-15T10:04:45.271Z,23.31
2022-12-15T10:07:30.884Z,23.39
2022-12-15T10:10:00.825Z,23.14
2022-12-15T10:12:39.597Z,23.31
2022-12-15T10:15:22.269Z,23.46
2022-12-15T10:18:08.083Z,23.32
2022-12-15T10:20:38.362Z,23.25
2022-12-15T10:23:15.695Z,23.40
2022-12-15T10:26:02.945Z,23.38
2022-12-15T10:29:00.243Z,23.33
2022-12-15T10:31:54.269Z,23.24
2022-12-15T10:34:36.643Z,23.24
2022-12-15T10:37:07.413Z,23.08
2022-12-15T10:39:43.202Z,23.15
2022-12-15T10:42:20.862Z,23.11
2022-12-15T10:44:56.469Z,23.08
2022-12-15T10:47:32.554Z,22.97
2022-12-15T10:50:25.433Z,23.03
2022-12-15T10:52:58.706Z,22.88
2022-12-15T10:58:46.952Z,22.86
2022-12-15T11:01:26.166Z,22.84
2022-12-15T11:03:57.628Z,22.72
2022-12-15T11:06:31.227Z,22.71
2022-12-15T11:09:24.182Z,22.79
2022-12-15T11:12:12.861Z,22.58
2022-12-15T11:14:51.745Z,22.60
2022-12-15T11:17:25.226Z,22.52
2022-12-15T11:20:05.025Z,22.46
2022-12-15T11:22:44.215Z,22.40
2022-12-15T11:25:27.458Z,22.45
2022-12-15T11:28:01.754Z,22.22
2022-12-15T11:30:37.636Z,22.20
2022-12-15T11:33:10.037Z,21.99
2022-12-15T11:35:45.151Z,22.17
2022-12-15T11:38:31.074Z,21.98
2022-12-15T11:41:23.969Z,21.88
2022-12-15T11:43:54.351Z,21.73
2022-12-15T11:47:03.602Z,21.66
2022-12-15T11:49:41.368Z,21.53
2022-12-15T11:52:37.932Z,21.57
2022-12-15T11:55:41.212Z,21.45
2022-12-15T11:58:52.764Z,21.31
2022-12-15T12:01:55.533Z,21.21
2022-12-15T12:04:55.714Z,20.99
2022-12-15T12:07:41.704Z,20.87
2022-12-15T12:10:40.224Z,20.77
2022-12-15T12:13:33.308Z,20.64
2022-12-15T12:16:05.303Z,20.64
2022-12-15T12:18:43.152Z,20.42
2022-12-15T12:21:17.356Z,20.36
2022-12-15T12:23:52.724Z,20.22
2022-12-15T12:26:33.612Z,20.20
2022-12-15T12:29:27.444Z,20.25
2022-12-15T12:32:04.525Z,19.99
2022-12-15T12:34:50.962Z,20.03
2022-12-15T12:37:24.113Z,19.81
2022-12-15T12:39:55.311Z,19.92
2022-12-15T12:42:47.901Z,19.80
2022-12-15T12:45:23.523Z,19.68
2022-12-15T12:47:57.697Z,19.58
2022-12-15T12:50:31.435Z,19.49
2022-12-15T12:53:03.626Z,19.47
2022-12-15T12:55:44.183Z,19.51
2022-12-15T12:58:36.053Z,19.45
2022-12-15T13:01:28.705Z,19.35
2022-12-15T13:04:14.148Z,19.31
2022-12-15T13:06:44.073Z,19.15
2022-12-15T13:09:20.261Z,19.24
2022-12-15T13:11:52.915Z,19.12
2022-12-15T13:14:46.587Z,19.07
2022-12-15T13:17:30.324Z,19.15
2022-12-15T13:20:03.056Z,19.12
2022-12-15T13:22:38.580Z,19.08
2022-12-15T13:25:37.850Z,19.08
2022-12-15T13:28:19.335Z,18.99
2022-12-15T13:31:30.011Z,18.94
2022-12-15T13:34:27.820Z,18.93
2022-12-15T13:36:59.445Z,18.74
2022-12-15T13:39:33.602Z,18.77
2022-12-15T13:45:06.778Z,18.65
2022-12-15T13:47:36.868Z,18.51
2022-12-15T13:50:21.593Z,18.64
2022-12-15T13:56:05.918Z,18.54
2022-12-15T13:58:44.966Z,18.49
2022-12-15T14:01:33.011Z,18.49
2022-12-15T14:04:19.507Z,18.46
2022-12-15T14:07:02.313Z,18.46
2022-12-15T14:09:34.773Z,18.40
2022-12-15T14:12:07.529Z,18.32
2022-12-15T14:14:44.839Z,18.30
2022-12-15T14:17:19.417Z,18.31
2022-12-15T14:19:52.381Z,18.19
2022-12-15T14:22:29.490Z,18.28
2022-12-15T14:25:14.913Z,18.22
2022-12-15T14:27:53.509Z,18.10
2022-12-15T14:30:35.390Z,18.19
2022-12-15T14:33:15.609Z,17.97
2022-12-15T14:35:56.587Z,18.10
2022-12-15T14:38:32.757Z,18.00
2022-12-15T14:41:05.106Z,17.96
2022-12-15T14:43:39.688Z,17.98
2022-12-15T14:46:21.529Z,18.01
2022-12-15T14:49:06.791Z,18.05
2022-12-15T14:51:53.272Z,18.06
2022-12-15T14:54:40.001Z,18.04
2022-12-15T14:57:21.942Z,18.04
2022-12-15T14:59:55.818Z,17.92
2022-12-15T15:02:27.792Z,17.91
2022-12-15T15:03:04.145Z,22.97
2022-12-15T15:05:06.585Z,17.99
2022-12-15T15:07:39.566Z,17.98
2022-12-15T15:10:31.025Z,18.02
2022-12-15T15:13:01.013Z,17.87
2022-12-15T15:15:39.643Z,17.85
2022-12-15T15:18:17.198Z,17.90
2022-12-15T15:20:59.772Z,18.04
2022-12-15T15:23:33.572Z,17.87
2022-12-15T15:26:06.864Z,17.91
2022-12-15T15:28:42.257Z,17.90
2022-12-15T15:31:28.771Z,17.93
2022-12-15T15:34:00.177Z,17.81
2022-12-15T15:36:44.400Z,17.82
2022-12-15T15:39:19.982Z,17.80
2022-12-15T15:41:50.654Z,17.68
2022-12-15T15:44:20.565Z,17.63
2022-12-15T15:46:56.010Z,17.69
2022-12-15T15:49:28.749Z,17.61
2022-12-15T15:51:59.905Z,17.61
2022-12-15T15:54:37.092Z,17.65
2022-12-15T15:57:06.844Z,17.55
2022-12-15T15:59:38.030Z,17.51
2022-12-15T16:02:11.658Z,17.51
2022-12-15T16:04:43.560Z,17.70
2022-12-15T16:07:32.094Z,17.57
2022-12-15T16:10:02.120Z,17.47
2022-12-15T16:12:46.868Z,17.47
2022-12-15T16:15:20.152Z,17.45
2022-12-15T16:17:50.133Z,17.39
2022-12-15T16:20:22.633Z,17.43
2022-12-15T16:22:53.368Z,17.59
2022-12-15T16:25:50.050Z,17.47
2022-12-15T16:28:25.034Z,17.36
2022-12-15T16:31:02.718Z,17.27
2022-12-15T16:33:34.415Z,17.29
2022-12-15T16:36:24.019Z,17.38
2022-12-15T16:38:55.935Z,17.24
2022-12-15T16:41:28.954Z,17.16
2022-12-15T16:44:02.327Z,17.15
2022-12-15T16:46:32.890Z,17.19
2022-12-15T16:49:06.830Z,17.24
2022-12-15T16:51:44.011Z,17.27
2022-12-15T16:54:28.523Z,17.24
2022-12-15T16:57:01.243Z,17.12
2022-12-15T16:59:33.432Z,17.09
2022-12-15T17:02:30.309Z,17.20
2022-12-15T17:05:01.270Z,17.07
2022-12-15T17:07:32.050Z,17.05
2022-12-15T17:10:03.473Z,17.06
2022-12-15T17:12:34.866Z,17.07
2022-12-15T17:15:20.057Z,17.15
2022-12-15T17:17:54.849Z,17.02
2022-12-15T17:20:31.429Z,17.07
2022-12-15T17:23:09.206Z,17.02
2022-12-15T17:28:38.077Z,16.95
2022-12-15T17:31:14.824Z,16.89
2022-12-15T17:33:49.777Z,16.87
2022-12-15T17:36:26.179Z,16.96
2022-12-15T17:39:04.333Z,16.98
2022-12-15T17:41:58.696Z,16.83
2022-12-15T17:44:34.895Z,16.86
2022-12-15T17:47:09.332Z,16.75
2022-12-15T17:49:43.045Z,16.73
2022-12-15T17:52:29.006Z,16.83
2022-12-15T17:54:59.747Z,16.70
2022-12-15T17:57:32.984Z,16.64
2022-12-15T18:00:05.187Z,16.59
2022-12-15T18:02:35.218Z,16.59
2022-12-15T18:05:06.097Z,16.54
2022-12-15T18:07:35.765Z,16.51
2022-12-15T18:10:05.952Z,16.50
2022-12-15T18:12:37.143Z,16.45
2022-12-15T18:15:20.827Z,16.58
2022-12-15T18:17:51.107Z,16.42
2022-12-15T18:20:21.754Z,16.38
2022-12-15T18:22:52.803Z,16.34
2022-12-15T18:25:29.385Z,16.25
2022-12-15T18:28:02.535Z,16.25
2022-12-15T18:30:32.477Z,16.24
2022-12-15T18:33:02.002Z,16.20
2022-12-15T18:35:45.073Z,16.27
2022-12-15T18:38:23.826Z,16.28
2022-12-15T18:40:59.447Z,16.17
2022-12-15T18:43:34.933Z,16.24
2022-12-15T18:46:04.963Z,16.13
2022-12-15T18:48:38.627Z,16.18
2022-12-15T18:51:18.764Z,16.25
2022-12-15T18:53:50.101Z,16.10
2022-12-15T18:56:22.763Z,16.11
2022-12-15T18:58:52.314Z,16.08
2022-12-15T19:01:22.248Z,16.08
2022-12-15T19:03:52.053Z,16.03
2022-12-15T19:06:26.347Z,16.01
2022-12-15T19:08:56.243Z,16.02
2022-12-15T19:11:32.130Z,16.12
2022-12-15T19:14:03.897Z,16.04
2022-12-15T19:16:53.215Z,15.97
2022-12-15T19:19:41.625Z,15.97
2022-12-15T19:22:31.606Z,16.00
2022-12-15T19:25:03.249Z,15.97
2022-12-15T19:27:33.289Z,15.89
2022-12-15T19:30:03.337Z,15.87
2022-12-15T19:32:32.814Z,15.86
2022-12-15T19:35:05.653Z,15.86
2022-12-15T19:37:37.755Z,15.93
2022-12-15T19:40:18.099Z,15.89
2022-12-15T19:42:49.755Z,15.88
2022-12-15T19:45:25.047Z,15.87
2022-12-15T19:47:55.110Z,15.78
2022-12-15T19:50:27.928Z,15.80
2022-12-15T19:53:01.879Z,15.81
2022-12-15T19:55:37.209Z,15.82
2022-12-15T19:58:32.821Z,15.85
2022-12-15T20:01:13.355Z,15.88
2022-12-15T20:03:48.546Z,15.83
2022-12-15T20:06:21.691Z,15.73
2022-12-15T20:08:51.590Z,15.92
2022-12-15T20:11:27.903Z,15.78
2022-12-15T20:13:57.875Z,15.72
2022-12-15T20:16:27.487Z,15.69
2022-12-15T20:18:57.470Z,15.76
2022-12-15T20:21:32.611Z,15.86
2022-12-15T20:24:08.780Z,15.81
2022-12-15T20:26:40.562Z,15.79
2022-12-15T20:29:25.573Z,15.85
2022-12-15T20:31:56.197Z,15.71
2022-12-15T20:34:26.971Z,15.73
2022-12-15T20:36:56.666Z,15.67
2022-12-15T20:39:32.388Z,15.80
2022-12-15T20:42:02.119Z,15.71
2022-12-15T20:44:31.485Z,15.72
2022-12-15T20:47:00.905Z,15.74
2022-12-15T20:49:30.615Z,15.76
2022-12-15T20:52:00.576Z,15.73
2022-12-15T20:54:30.544Z,15.73
2022-12-15T20:56:59.997Z,15.76
2022-12-15T20:59:29.532Z,15.76
2022-12-15T21:01:59.311Z,15.76
2022-12-15T21:04:31.528Z,15.84
2022-12-15T21:07:01.435Z,15.82
2022-12-15T21:09:31.111Z,15.81
2022-12-15T21:12:04.371Z,15.84
2022-12-15T21:14:37.300Z,15.84
2022-12-15T21:17:07.375Z,15.86
2022-12-15T21:19:36.973Z,15.85
2022-12-15T21:22:07.800Z,15.80
2022-12-15T21:24:37.947Z,15.82
2022-12-15T21:27:11.630Z,15.87
2022-12-15T21:29:43.304Z,15.84
2022-12-15T21:32:16.433Z,15.84
2022-12-15T21:34:46.091Z,15.85
2022-12-15T21:37:46.335Z,16.04
2022-12-15T21:40:21.638Z,15.93
2022-12-15T21:42:52.337Z,15.78
2022-12-15T21:45:24.511Z,15.83
2022-12-15T21:48:12.794Z,15.72
2022-12-15T21:50:46.645Z,15.67
2022-12-15T21:53:18.921Z,15.63
2022-12-15T21:55:48.772Z,15.57
2022-12-15T21:58:25.935Z,15.73
2022-12-15T22:00:56.101Z,15.63
2022-12-15T22:03:25.844Z,15.55
2022-12-15T22:05:55.093Z,15.49
2022-12-15T22:08:25.230Z,15.44
2022-12-15T22:10:56.152Z,15.44
2022-12-15T22:13:26.262Z,15.35
2022-12-15T22:15:55.971Z,15.31
2022-12-15T22:18:25.668Z,15.23
2022-12-15T22:20:55.310Z,15.17
2022-12-15T22:23:24.873Z,15.11
2022-12-15T22:25:57.504Z,15.16
2022-12-15T22:28:30.277Z,15.14
2022-12-15T22:30:59.879Z,15.25
2022-12-15T22:33:30.104Z,15.02
2022-12-15T22:36:00.088Z,14.94
2022-12-15T22:38:29.998Z,14.93
2022-12-15T22:41:01.201Z,14.94
2022-12-15T22:43:42.026Z,14.96
2022-12-15T22:46:14.928Z,14.93
2022-12-15T22:48:48.684Z,14.92
2022-12-15T22:51:20.125Z,14.86
2022-12-15T22:53:50.037Z,14.80
2022-12-15T22:56:35.427Z,14.89
2022-12-15T22:59:10.955Z,14.82
2022-12-15T23:01:40.793Z,14.73
2022-12-15T23:04:10.675Z,14.67
2022-12-15T23:06:41.302Z,14.64
2022-12-15T23:09:11.179Z,14.65
2022-12-15T23:11:40.860Z,14.67
2022-12-15T23:14:15.421Z,14.68
2022-12-15T23:16:47.423Z,14.70
2022-12-15T23:19:25.875Z,14.63
2022-12-15T23:21:55.855Z,14.60
2022-12-15T23:24:25.679Z,14.51
2022-12-15T23:26:55.300Z,14.55
2022-12-15T23:29:25.888Z,14.46
2022-12-15T23:31:55.575Z,14.46
2022-12-15T23:34:25.149Z,14.51
2022-12-15T23:36:54.578Z,14.47
2022-12-15T23:39:24.564Z,14.58
2022-12-15T23:41:54.173Z,14.71
2022-12-15T23:44:24.385Z,14.79
2022-12-15T23:46:54.003Z,14.83
2022-12-15T23:49:23.537Z,14.85
2022-12-15T23:51:53.316Z,14.84
2022-12-15T23:54:24.664Z,14.92
2022-12-15T23:56:54.777Z,14.85
2022-12-15T23:59:24.301Z,14.93
